Angier, North Carolina
Current Conditions -  °F | °C
As of 1:15 PM on Friday 28 Nov 2014 (Local Time) from KHRJ Reporting Station
Clear Clear  
Wind Chill: 44°   Ceiling: Unl
Heat Index: 44°   Visibility: 10mi
Dew Point: 19°   Wind: 3mph
Humidity: 37%   Direction: 310°NW
Pressure: 30.31"   Gusts: NA
Location:  35.51°N, 78.74°W
Report Text: KHRJ 281815Z AUTO 31003KT 10SM CLR 07/M07 A3031 RMK AO2 T00661073
Loading
Personal Weather Stations






























Interactive Weather Map New forecast layout! Learn more

10-Day Weather Forecast

Advertisements
Track Severe Weather on mobile